الصفحة الرئيسية
METAR-TAF:

METAR-TAF

مطار :

بانكوك, تايلاند

مطار دون موينغ

دائرة عرض: 13-54-45N, خط طول: 100-36-24E, ارتفاع: 4 متر

مراقبة الطقس الحالي

تاريخ ووقت الإصدار 39 دقيقة قبل الساعة 15:30UTC
ريح 8 عقدة من الجنوب
درجة الحرارة 30°درجة مئوية
الرطوبة 75%
ضغط 1008 hPa
الرؤية 10 كم أو أكثر
غيوم قليلة على ارتفاع 2000 قدم

METAR: VTBD 221530Z 19008KT 9999 FEW020 30/25 Q1008 NOSIG

زمن: 23:09 (16:09 UTC)

توقعات

تاريخ ووقت الإصدار 5ساعات و 9 دقيقة قبل الساعة 11:00UTC
التوقعات صالحة من22 الساعة 12 UTC إلى 23 الساعة 18 UTC
ريح 8 عقدة من الجنوب/الجنوب الغربي
الرؤية 10 كم أو أكثر
غيوم قليلة على ارتفاع 2500 قدم
أصبح
من 22 الساعة 22 UTC إلى 22 الساعة 24 UTC
ريح 5 عقدة من الجنوب الشرقي
أصبح
من 23 الساعة 02 UTC إلى 23 الساعة 04 UTC
ريح 8 عقدة من الجنوب/الجنوب الغربي
غيوم قليلة على ارتفاع 2000 قدم

TAF: VTBD 221100Z 2212/2318 20008KT 9999 FEW025 BECMG 2222/2224 14005KT BECMG 2302/2304 20008KT FEW020

أرصاد الطقس والتوقعات من أكثر من 4000 مطار (تقارير الطقس للمطار METAR والتنبؤ بالطقس بالمطارTAF).

المحطات المتاحة هي النقط الصفراء والحمراء على الخريطة.

حرك المؤشر فوق النقطة لمعرفة اسم المحطة.

ثم انقر لمعرفة أرصاد وتوقعات الطقس.

لتغيير الخارطة: اضغط على الأزرار الخضراء مع رمز الصليب الأسود للتكبير. على الزر الأخضر مع شرطة للتصغير، أو على الأسهم الخضراء للخرائط المجاورة.


METAR-TAF: